sensor_id;sensor_type;location;lat;lon;timestamp;P1;durP1;ratioP1;P2;durP2;ratioP2
4638;SDS011;2332;38.646;-9.154;2023-03-02T00:02:18;6.00;;;3.90;;
4638;SDS011;2332;38.646;-9.154;2023-03-02T00:04:50;4.73;;;4.23;;
4638;SDS011;2332;38.646;-9.154;2023-03-02T00:07:18;7.17;;;4.27;;
4638;SDS011;2332;38.646;-9.154;2023-03-02T00:09:44;5.40;;;4.27;;
4638;SDS011;2332;38.646;-9.154;2023-03-02T00:12:10;4.87;;;3.60;;
4638;SDS011;2332;38.646;-9.154;2023-03-02T00:14:36;6.67;;;4.00;;
4638;SDS011;2332;38.646;-9.154;2023-03-02T00:17:02;7.40;;;4.13;;
4638;SDS011;2332;38.646;-9.154;2023-03-02T00:19:27;9.60;;;3.60;;
4638;SDS011;2332;38.646;-9.154;2023-03-02T00:21:53;7.20;;;3.90;;
4638;SDS011;2332;38.646;-9.154;2023-03-02T00:24:18;9.67;;;3.90;;
4638;SDS011;2332;38.646;-9.154;2023-03-02T00:26:43;8.70;;;3.90;;
4638;SDS011;2332;38.646;-9.154;2023-03-02T00:29:09;7.47;;;4.20;;
4638;SDS011;2332;38.646;-9.154;2023-03-02T00:31:36;6.60;;;3.97;;
4638;SDS011;2332;38.646;-9.154;2023-03-02T00:34:02;11.83;;;3.93;;
4638;SDS011;2332;38.646;-9.154;2023-03-02T00:36:27;6.27;;;4.77;;
4638;SDS011;2332;38.646;-9.154;2023-03-02T00:38:52;8.30;;;4.40;;
4638;SDS011;2332;38.646;-9.154;2023-03-02T00:41:18;5.80;;;3.60;;
4638;SDS011;2332;38.646;-9.154;2023-03-02T00:43:50;7.10;;;4.10;;
4638;SDS011;2332;38.646;-9.154;2023-03-02T00:46:19;13.50;;;4.97;;
4638;SDS011;2332;38.646;-9.154;2023-03-02T00:48:44;14.97;;;4.57;;
4638;SDS011;2332;38.646;-9.154;2023-03-02T00:51:10;11.90;;;7.77;;
4638;SDS011;2332;38.646;-9.154;2023-03-02T00:53:36;12.87;;;7.20;;
4638;SDS011;2332;38.646;-9.154;2023-03-02T00:56:01;18.30;;;9.23;;
4638;SDS011;2332;38.646;-9.154;2023-03-02T00:58:27;23.33;;;8.67;;
4638;SDS011;2332;38.646;-9.154;2023-03-02T01:00:53;20.67;;;11.00;;
4638;SDS011;2332;38.646;-9.154;2023-03-02T01:03:18;19.60;;;10.10;;
4638;SDS011;2332;38.646;-9.154;2023-03-02T01:05:44;19.53;;;10.90;;
4638;SDS011;2332;38.646;-9.154;2023-03-02T01:08:09;23.43;;;12.23;;
4638;SDS011;2332;38.646;-9.154;2023-03-02T01:10:35;18.17;;;11.67;;
4638;SDS011;2332;38.646;-9.154;2023-03-02T01:13:01;19.60;;;12.20;;
4638;SDS011;2332;38.646;-9.154;2023-03-02T01:15:27;20.93;;;12.53;;
4638;SDS011;2332;38.646;-9.154;2023-03-02T01:17:52;23.33;;;12.17;;
4638;SDS011;2332;38.646;-9.154;2023-03-02T01:20:17;30.13;;;13.43;;
4638;SDS011;2332;38.646;-9.154;2023-03-02T01:22:43;19.40;;;12.20;;
4638;SDS011;2332;38.646;-9.154;2023-03-02T01:25:09;21.37;;;12.40;;
4638;SDS011;2332;38.646;-9.154;2023-03-02T01:27:34;25.77;;;13.03;;
4638;SDS011;2332;38.646;-9.154;2023-03-02T01:30:00;19.07;;;12.50;;
4638;SDS011;2332;38.646;-9.154;2023-03-02T01:32:25;26.90;;;12.40;;
4638;SDS011;2332;38.646;-9.154;2023-03-02T01:34:51;22.27;;;13.07;;
4638;SDS011;2332;38.646;-9.154;2023-03-02T01:37:16;26.13;;;13.30;;
4638;SDS011;2332;38.646;-9.154;2023-03-02T01:39:42;19.03;;;12.63;;
4638;SDS011;2332;38.646;-9.154;2023-03-02T01:42:07;24.23;;;12.60;;
4638;SDS011;2332;38.646;-9.154;2023-03-02T01:46:58;25.50;;;13.73;;
4638;SDS011;2332;38.646;-9.154;2023-03-02T01:49:24;23.47;;;13.53;;
4638;SDS011;2332;38.646;-9.154;2023-03-02T01:51:50;26.67;;;13.43;;
4638;SDS011;2332;38.646;-9.154;2023-03-02T01:54:16;25.00;;;13.40;;
4638;SDS011;2332;38.646;-9.154;2023-03-02T01:56:47;21.87;;;14.03;;
4638;SDS011;2332;38.646;-9.154;2023-03-02T01:59:14;22.43;;;13.73;;
4638;SDS011;2332;38.646;-9.154;2023-03-02T02:01:41;24.50;;;15.00;;
4638;SDS011;2332;38.646;-9.154;2023-03-02T02:04:07;25.67;;;15.23;;
4638;SDS011;2332;38.646;-9.154;2023-03-02T02:06:40;22.80;;;12.97;;
4638;SDS011;2332;38.646;-9.154;2023-03-02T02:09:08;22.07;;;13.70;;
4638;SDS011;2332;38.646;-9.154;2023-03-02T02:11:34;27.07;;;13.57;;
4638;SDS011;2332;38.646;-9.154;2023-03-02T02:14:01;31.23;;;14.30;;
4638;SDS011;2332;38.646;-9.154;2023-03-02T02:16:27;24.10;;;13.57;;
4638;SDS011;2332;38.646;-9.154;2023-03-02T02:18:53;22.70;;;13.57;;
4638;SDS011;2332;38.646;-9.154;2023-03-02T02:21:20;22.70;;;14.80;;
4638;SDS011;2332;38.646;-9.154;2023-03-02T02:26:19;27.03;;;14.43;;
4638;SDS011;2332;38.646;-9.154;2023-03-02T02:29:04;29.70;;;15.80;;
4638;SDS011;2332;38.646;-9.154;2023-03-02T02:31:36;25.30;;;14.73;;
4638;SDS011;2332;38.646;-9.154;2023-03-02T02:34:15;31.17;;;15.23;;
4638;SDS011;2332;38.646;-9.154;2023-03-02T02:36:42;25.57;;;14.73;;
4638;SDS011;2332;38.646;-9.154;2023-03-02T02:39:10;27.40;;;15.33;;
4638;SDS011;2332;38.646;-9.154;2023-03-02T02:41:39;33.53;;;15.37;;
4638;SDS011;2332;38.646;-9.154;2023-03-02T02:44:05;25.70;;;15.50;;
4638;SDS011;2332;38.646;-9.154;2023-03-02T02:46:30;27.07;;;14.80;;
4638;SDS011;2332;38.646;-9.154;2023-03-02T02:48:56;27.43;;;15.60;;
4638;SDS011;2332;38.646;-9.154;2023-03-02T02:51:22;24.80;;;15.90;;
4638;SDS011;2332;38.646;-9.154;2023-03-02T02:53:54;30.53;;;15.63;;
4638;SDS011;2332;38.646;-9.154;2023-03-02T02:56:24;26.30;;;15.90;;
4638;SDS011;2332;38.646;-9.154;2023-03-02T02:58:50;26.90;;;17.43;;
4638;SDS011;2332;38.646;-9.154;2023-03-02T03:01:17;26.40;;;17.20;;
4638;SDS011;2332;38.646;-9.154;2023-03-02T03:03:50;30.00;;;18.20;;
4638;SDS011;2332;38.646;-9.154;2023-03-02T03:06:17;24.93;;;16.80;;
4638;SDS011;2332;38.646;-9.154;2023-03-02T03:11:10;25.23;;;17.20;;
4638;SDS011;2332;38.646;-9.154;2023-03-02T03:13:36;28.67;;;18.07;;
4638;SDS011;2332;38.646;-9.154;2023-03-02T03:16:03;26.13;;;16.80;;
4638;SDS011;2332;38.646;-9.154;2023-03-02T03:18:30;29.03;;;17.10;;
4638;SDS011;2332;38.646;-9.154;2023-03-02T03:20:58;27.20;;;16.20;;
4638;SDS011;2332;38.646;-9.154;2023-03-02T03:23:24;26.50;;;17.27;;
4638;SDS011;2332;38.646;-9.154;2023-03-02T03:25:49;24.33;;;16.23;;
4638;SDS011;2332;38.646;-9.154;2023-03-02T03:28:15;28.97;;;17.80;;
4638;SDS011;2332;38.646;-9.154;2023-03-02T03:30:40;29.70;;;17.10;;
4638;SDS011;2332;38.646;-9.154;2023-03-02T03:33:06;30.03;;;17.43;;
4638;SDS011;2332;38.646;-9.154;2023-03-02T03:35:35;29.47;;;17.77;;
4638;SDS011;2332;38.646;-9.154;2023-03-02T03:38:01;27.17;;;17.33;;
4638;SDS011;2332;38.646;-9.154;2023-03-02T03:40:26;26.40;;;16.17;;
4638;SDS011;2332;38.646;-9.154;2023-03-02T03:42:53;33.23;;;17.63;;
4638;SDS011;2332;38.646;-9.154;2023-03-02T03:45:18;28.67;;;17.50;;
4638;SDS011;2332;38.646;-9.154;2023-03-02T03:47:43;27.70;;;16.30;;
4638;SDS011;2332;38.646;-9.154;2023-03-02T03:50:09;30.70;;;16.97;;
4638;SDS011;2332;38.646;-9.154;2023-03-02T03:52:37;25.43;;;16.80;;
4638;SDS011;2332;38.646;-9.154;2023-03-02T03:55:02;28.03;;;16.97;;
4638;SDS011;2332;38.646;-9.154;2023-03-02T03:57:28;31.40;;;17.80;;
4638;SDS011;2332;38.646;-9.154;2023-03-02T03:59:54;26.07;;;17.80;;
4638;SDS011;2332;38.646;-9.154;2023-03-02T04:02:19;28.63;;;18.10;;
4638;SDS011;2332;38.646;-9.154;2023-03-02T04:04:45;28.70;;;18.27;;
4638;SDS011;2332;38.646;-9.154;2023-03-02T04:07:11;31.17;;;17.47;;
4638;SDS011;2332;38.646;-9.154;2023-03-02T04:09:36;30.93;;;16.27;;
4638;SDS011;2332;38.646;-9.154;2023-03-02T04:12:03;23.57;;;16.70;;
4638;SDS011;2332;38.646;-9.154;2023-03-02T04:14:29;31.73;;;16.70;;
4638;SDS011;2332;38.646;-9.154;2023-03-02T04:16:54;24.27;;;16.90;;
4638;SDS011;2332;38.646;-9.154;2023-03-02T04:19:20;26.00;;;16.50;;
4638;SDS011;2332;38.646;-9.154;2023-03-02T04:21:47;28.57;;;16.50;;
4638;SDS011;2332;38.646;-9.154;2023-03-02T04:24:13;29.13;;;17.23;;
4638;SDS011;2332;38.646;-9.154;2023-03-02T04:26:39;27.93;;;17.13;;
4638;SDS011;2332;38.646;-9.154;2023-03-02T04:29:04;26.20;;;16.37;;
4638;SDS011;2332;38.646;-9.154;2023-03-02T04:31:30;32.47;;;16.87;;
4638;SDS011;2332;38.646;-9.154;2023-03-02T04:33:55;24.40;;;16.83;;
4638;SDS011;2332;38.646;-9.154;2023-03-02T04:36:21;28.10;;;15.80;;
4638;SDS011;2332;38.646;-9.154;2023-03-02T04:38:46;32.07;;;17.70;;
4638;SDS011;2332;38.646;-9.154;2023-03-02T04:41:11;26.37;;;17.53;;
4638;SDS011;2332;38.646;-9.154;2023-03-02T04:43:37;34.50;;;16.53;;
4638;SDS011;2332;38.646;-9.154;2023-03-02T04:46:02;24.97;;;16.83;;
4638;SDS011;2332;38.646;-9.154;2023-03-02T04:48:28;25.73;;;16.80;;
4638;SDS011;2332;38.646;-9.154;2023-03-02T04:50:53;22.73;;;16.40;;
4638;SDS011;2332;38.646;-9.154;2023-03-02T04:53:18;23.77;;;16.33;;
4638;SDS011;2332;38.646;-9.154;2023-03-02T04:55:44;24.83;;;15.33;;
4638;SDS011;2332;38.646;-9.154;2023-03-02T04:58:09;28.60;;;16.20;;
4638;SDS011;2332;38.646;-9.154;2023-03-02T05:00:35;30.43;;;15.77;;
4638;SDS011;2332;38.646;-9.154;2023-03-02T05:03:01;27.27;;;17.03;;
4638;SDS011;2332;38.646;-9.154;2023-03-02T05:05:27;25.63;;;16.10;;
4638;SDS011;2332;38.646;-9.154;2023-03-02T05:07:52;24.73;;;17.00;;
4638;SDS011;2332;38.646;-9.154;2023-03-02T05:10:18;29.20;;;16.93;;
4638;SDS011;2332;38.646;-9.154;2023-03-02T05:12:44;26.60;;;15.87;;
4638;SDS011;2332;38.646;-9.154;2023-03-02T05:15:27;22.37;;;15.27;;
4638;SDS011;2332;38.646;-9.154;2023-03-02T05:17:53;27.20;;;16.37;;
4638;SDS011;2332;38.646;-9.154;2023-03-02T05:20:18;26.77;;;17.03;;
4638;SDS011;2332;38.646;-9.154;2023-03-02T05:22:44;22.17;;;15.73;;
4638;SDS011;2332;38.646;-9.154;2023-03-02T05:25:09;25.57;;;16.63;;
4638;SDS011;2332;38.646;-9.154;2023-03-02T05:27:34;24.30;;;16.60;;
4638;SDS011;2332;38.646;-9.154;2023-03-02T05:30:02;26.90;;;18.10;;
4638;SDS011;2332;38.646;-9.154;2023-03-02T05:32:27;26.67;;;16.40;;
4638;SDS011;2332;38.646;-9.154;2023-03-02T05:34:53;22.80;;;15.87;;
4638;SDS011;2332;38.646;-9.154;2023-03-02T05:37:18;24.10;;;15.40;;
4638;SDS011;2332;38.646;-9.154;2023-03-02T05:39:44;20.57;;;15.40;;
4638;SDS011;2332;38.646;-9.154;2023-03-02T05:42:09;18.90;;;14.30;;
4638;SDS011;2332;38.646;-9.154;2023-03-02T05:44:34;22.53;;;14.90;;
4638;SDS011;2332;38.646;-9.154;2023-03-02T05:47:00;25.90;;;16.10;;
4638;SDS011;2332;38.646;-9.154;2023-03-02T05:49:25;25.13;;;16.43;;
4638;SDS011;2332;38.646;-9.154;2023-03-02T05:51:50;21.97;;;16.00;;
4638;SDS011;2332;38.646;-9.154;2023-03-02T05:54:16;28.93;;;17.10;;
4638;SDS011;2332;38.646;-9.154;2023-03-02T05:56:41;25.23;;;15.90;;
4638;SDS011;2332;38.646;-9.154;2023-03-02T05:59:07;19.90;;;15.80;;
4638;SDS011;2332;38.646;-9.154;2023-03-02T06:01:32;35.20;;;18.43;;
4638;SDS011;2332;38.646;-9.154;2023-03-02T06:03:59;36.57;;;18.07;;
4638;SDS011;2332;38.646;-9.154;2023-03-02T06:06:24;25.33;;;16.27;;
4638;SDS011;2332;38.646;-9.154;2023-03-02T06:08:49;32.20;;;17.90;;
4638;SDS011;2332;38.646;-9.154;2023-03-02T06:11:15;26.53;;;16.50;;
4638;SDS011;2332;38.646;-9.154;2023-03-02T06:13:40;24.60;;;15.43;;
4638;SDS011;2332;38.646;-9.154;2023-03-02T06:16:06;26.77;;;15.90;;
4638;SDS011;2332;38.646;-9.154;2023-03-02T06:18:32;22.10;;;15.23;;
4638;SDS011;2332;38.646;-9.154;2023-03-02T06:20:57;23.20;;;15.63;;
4638;SDS011;2332;38.646;-9.154;2023-03-02T06:23:24;34.10;;;17.37;;
4638;SDS011;2332;38.646;-9.154;2023-03-02T06:25:49;26.57;;;15.57;;
4638;SDS011;2332;38.646;-9.154;2023-03-02T06:28:15;29.30;;;17.50;;
4638;SDS011;2332;38.646;-9.154;2023-03-02T06:30:40;27.30;;;16.57;;
4638;SDS011;2332;38.646;-9.154;2023-03-02T06:33:06;28.50;;;16.53;;
4638;SDS011;2332;38.646;-9.154;2023-03-02T06:35:32;27.13;;;15.80;;
4638;SDS011;2332;38.646;-9.154;2023-03-02T06:37:58;30.47;;;16.63;;
4638;SDS011;2332;38.646;-9.154;2023-03-02T06:40:24;28.07;;;17.20;;
4638;SDS011;2332;38.646;-9.154;2023-03-02T06:42:49;37.23;;;16.80;;
4638;SDS011;2332;38.646;-9.154;2023-03-02T06:45:14;24.77;;;15.70;;
4638;SDS011;2332;38.646;-9.154;2023-03-02T06:47:40;25.53;;;16.73;;
4638;SDS011;2332;38.646;-9.154;2023-03-02T06:50:05;25.67;;;16.50;;
4638;SDS011;2332;38.646;-9.154;2023-03-02T06:52:31;24.50;;;16.30;;
4638;SDS011;2332;38.646;-9.154;2023-03-02T06:54:56;23.30;;;16.90;;
4638;SDS011;2332;38.646;-9.154;2023-03-02T06:57:22;30.63;;;18.93;;
4638;SDS011;2332;38.646;-9.154;2023-03-02T06:59:47;30.63;;;16.70;;
4638;SDS011;2332;38.646;-9.154;2023-03-02T07:02:13;35.10;;;16.73;;
4638;SDS011;2332;38.646;-9.154;2023-03-02T07:04:38;29.73;;;17.20;;
4638;SDS011;2332;38.646;-9.154;2023-03-02T07:07:04;30.43;;;17.93;;
4638;SDS011;2332;38.646;-9.154;2023-03-02T07:09:31;30.40;;;17.37;;
4638;SDS011;2332;38.646;-9.154;2023-03-02T07:11:56;28.00;;;16.73;;
4638;SDS011;2332;38.646;-9.154;2023-03-02T07:14:22;24.73;;;15.93;;
4638;SDS011;2332;38.646;-9.154;2023-03-02T07:16:47;31.20;;;17.60;;
4638;SDS011;2332;38.646;-9.154;2023-03-02T07:19:14;27.80;;;16.37;;
4638;SDS011;2332;38.646;-9.154;2023-03-02T07:21:39;35.20;;;18.37;;
4638;SDS011;2332;38.646;-9.154;2023-03-02T07:24:05;22.17;;;16.00;;
4638;SDS011;2332;38.646;-9.154;2023-03-02T07:26:31;30.57;;;18.17;;
4638;SDS011;2332;38.646;-9.154;2023-03-02T07:28:56;30.83;;;16.87;;
4638;SDS011;2332;38.646;-9.154;2023-03-02T07:31:23;26.50;;;17.97;;
4638;SDS011;2332;38.646;-9.154;2023-03-02T07:33:49;27.17;;;16.70;;
4638;SDS011;2332;38.646;-9.154;2023-03-02T07:36:14;26.33;;;16.77;;
4638;SDS011;2332;38.646;-9.154;2023-03-02T07:38:39;23.70;;;16.70;;
4638;SDS011;2332;38.646;-9.154;2023-03-02T07:41:06;32.63;;;18.70;;
4638;SDS011;2332;38.646;-9.154;2023-03-02T07:43:31;28.17;;;17.03;;
4638;SDS011;2332;38.646;-9.154;2023-03-02T07:45:59;28.27;;;16.17;;
4638;SDS011;2332;38.646;-9.154;2023-03-02T07:48:25;28.43;;;16.23;;
4638;SDS011;2332;38.646;-9.154;2023-03-02T07:50:50;23.90;;;15.33;;
4638;SDS011;2332;38.646;-9.154;2023-03-02T07:53:15;26.13;;;15.53;;
4638;SDS011;2332;38.646;-9.154;2023-03-02T07:55:41;28.77;;;16.53;;
4638;SDS011;2332;38.646;-9.154;2023-03-02T07:58:06;28.97;;;17.33;;
4638;SDS011;2332;38.646;-9.154;2023-03-02T08:00:32;32.80;;;17.37;;
4638;SDS011;2332;38.646;-9.154;2023-03-02T08:02:57;29.77;;;16.77;;
4638;SDS011;2332;38.646;-9.154;2023-03-02T08:05:23;39.10;;;21.07;;
4638;SDS011;2332;38.646;-9.154;2023-03-02T08:07:48;39.63;;;19.00;;
4638;SDS011;2332;38.646;-9.154;2023-03-02T08:10:14;37.93;;;18.57;;
4638;SDS011;2332;38.646;-9.154;2023-03-02T08:12:39;34.77;;;18.73;;
4638;SDS011;2332;38.646;-9.154;2023-03-02T08:15:07;37.53;;;17.20;;
4638;SDS011;2332;38.646;-9.154;2023-03-02T08:17:35;33.17;;;16.57;;
4638;SDS011;2332;38.646;-9.154;2023-03-02T08:20:01;26.87;;;14.57;;
4638;SDS011;2332;38.646;-9.154;2023-03-02T08:22:30;39.67;;;17.00;;
4638;SDS011;2332;38.646;-9.154;2023-03-02T08:24:55;48.07;;;18.03;;
4638;SDS011;2332;38.646;-9.154;2023-03-02T08:27:21;29.07;;;17.80;;
4638;SDS011;2332;38.646;-9.154;2023-03-02T08:29:46;30.60;;;16.93;;
4638;SDS011;2332;38.646;-9.154;2023-03-02T08:32:12;27.17;;;16.43;;
4638;SDS011;2332;38.646;-9.154;2023-03-02T08:34:37;30.90;;;15.80;;
4638;SDS011;2332;38.646;-9.154;2023-03-02T08:37:02;23.07;;;15.37;;
4638;SDS011;2332;38.646;-9.154;2023-03-02T08:39:28;21.37;;;15.40;;
4638;SDS011;2332;38.646;-9.154;2023-03-02T08:41:55;22.67;;;15.50;;
4638;SDS011;2332;38.646;-9.154;2023-03-02T08:44:20;39.93;;;17.30;;
4638;SDS011;2332;38.646;-9.154;2023-03-02T08:46:47;26.60;;;16.17;;
4638;SDS011;2332;38.646;-9.154;2023-03-02T08:49:13;26.17;;;14.00;;
4638;SDS011;2332;38.646;-9.154;2023-03-02T08:51:38;35.90;;;13.10;;
4638;SDS011;2332;38.646;-9.154;2023-03-02T08:54:03;19.70;;;12.20;;
4638;SDS011;2332;38.646;-9.154;2023-03-02T08:56:30;20.30;;;12.87;;
4638;SDS011;2332;38.646;-9.154;2023-03-02T08:59:00;18.17;;;12.60;;
4638;SDS011;2332;38.646;-9.154;2023-03-02T09:01:29;18.30;;;13.20;;
4638;SDS011;2332;38.646;-9.154;2023-03-02T09:03:55;20.90;;;13.20;;
4638;SDS011;2332;38.646;-9.154;2023-03-02T09:06:21;16.43;;;12.80;;
4638;SDS011;2332;38.646;-9.154;2023-03-02T09:08:47;15.60;;;11.60;;
4638;SDS011;2332;38.646;-9.154;2023-03-02T09:11:13;16.00;;;10.97;;
4638;SDS011;2332;38.646;-9.154;2023-03-02T09:13:38;15.37;;;11.10;;
4638;SDS011;2332;38.646;-9.154;2023-03-02T09:16:07;13.90;;;11.30;;
4638;SDS011;2332;38.646;-9.154;2023-03-02T09:18:32;13.27;;;10.77;;
4638;SDS011;2332;38.646;-9.154;2023-03-02T09:20:58;17.27;;;11.30;;
4638;SDS011;2332;38.646;-9.154;2023-03-02T09:23:24;19.23;;;11.77;;
4638;SDS011;2332;38.646;-9.154;2023-03-02T09:25:50;15.33;;;11.17;;
4638;SDS011;2332;38.646;-9.154;2023-03-02T09:28:16;16.70;;;11.77;;
4638;SDS011;2332;38.646;-9.154;2023-03-02T09:30:51;14.83;;;11.90;;
4638;SDS011;2332;38.646;-9.154;2023-03-02T09:33:17;16.80;;;11.27;;
4638;SDS011;2332;38.646;-9.154;2023-03-02T09:35:43;19.73;;;11.50;;
4638;SDS011;2332;38.646;-9.154;2023-03-02T09:38:09;13.80;;;11.53;;
4638;SDS011;2332;38.646;-9.154;2023-03-02T09:40:50;15.10;;;12.03;;
4638;SDS011;2332;38.646;-9.154;2023-03-02T09:48:52;11.90;;;10.70;;
4638;SDS011;2332;38.646;-9.154;2023-03-02T09:54:09;14.83;;;11.83;;
4638;SDS011;2332;38.646;-9.154;2023-03-02T09:56:36;16.60;;;11.30;;
4638;SDS011;2332;38.646;-9.154;2023-03-02T09:59:09;21.80;;;12.27;;
4638;SDS011;2332;38.646;-9.154;2023-03-02T10:01:38;16.30;;;12.37;;
4638;SDS011;2332;38.646;-9.154;2023-03-02T10:04:10;16.07;;;11.80;;
4638;SDS011;2332;38.646;-9.154;2023-03-02T10:06:36;15.53;;;11.47;;
4638;SDS011;2332;38.646;-9.154;2023-03-02T10:09:02;14.50;;;11.10;;
4638;SDS011;2332;38.646;-9.154;2023-03-02T10:11:35;14.70;;;11.40;;
4638;SDS011;2332;38.646;-9.154;2023-03-02T10:14:05;18.10;;;12.10;;
4638;SDS011;2332;38.646;-9.154;2023-03-02T10:16:33;15.10;;;12.10;;
4638;SDS011;2332;38.646;-9.154;2023-03-02T10:19:07;14.10;;;11.50;;
4638;SDS011;2332;38.646;-9.154;2023-03-02T10:21:38;18.73;;;12.10;;
4638;SDS011;2332;38.646;-9.154;2023-03-02T10:26:53;20.30;;;11.73;;
4638;SDS011;2332;38.646;-9.154;2023-03-02T10:31:44;19.80;;;11.70;;
4638;SDS011;2332;38.646;-9.154;2023-03-02T10:34:11;17.30;;;10.80;;
4638;SDS011;2332;38.646;-9.154;2023-03-02T10:36:38;19.20;;;12.70;;
4638;SDS011;2332;38.646;-9.154;2023-03-02T10:39:14;17.27;;;11.27;;
4638;SDS011;2332;38.646;-9.154;2023-03-02T10:41:45;20.67;;;10.67;;
4638;SDS011;2332;38.646;-9.154;2023-03-02T10:44:33;16.23;;;11.33;;
4638;SDS011;2332;38.646;-9.154;2023-03-02T10:47:02;17.30;;;10.43;;
4638;SDS011;2332;38.646;-9.154;2023-03-02T10:49:31;14.40;;;10.13;;
4638;SDS011;2332;38.646;-9.154;2023-03-02T10:52:01;13.47;;;10.00;;
4638;SDS011;2332;38.646;-9.154;2023-03-02T10:54:28;13.53;;;10.00;;
4638;SDS011;2332;38.646;-9.154;2023-03-02T10:56:57;13.67;;;11.40;;
4638;SDS011;2332;38.646;-9.154;2023-03-02T11:01:58;21.47;;;10.90;;
4638;SDS011;2332;38.646;-9.154;2023-03-02T11:04:25;12.37;;;10.23;;
4638;SDS011;2332;38.646;-9.154;2023-03-02T11:06:51;12.40;;;9.60;;
4638;SDS011;2332;38.646;-9.154;2023-03-02T11:09:16;11.83;;;10.23;;
4638;SDS011;2332;38.646;-9.154;2023-03-02T11:11:47;17.43;;;9.80;;
4638;SDS011;2332;38.646;-9.154;2023-03-02T11:14:14;15.00;;;9.93;;
4638;SDS011;2332;38.646;-9.154;2023-03-02T11:16:39;19.13;;;9.90;;
4638;SDS011;2332;38.646;-9.154;2023-03-02T11:22:03;13.13;;;8.60;;
4638;SDS011;2332;38.646;-9.154;2023-03-02T11:24:43;16.10;;;9.97;;
4638;SDS011;2332;38.646;-9.154;2023-03-02T11:29:42;12.70;;;9.60;;
4638;SDS011;2332;38.646;-9.154;2023-03-02T11:37:23;15.50;;;9.27;;
4638;SDS011;2332;38.646;-9.154;2023-03-02T11:39:56;12.17;;;9.37;;
4638;SDS011;2332;38.646;-9.154;2023-03-02T11:42:28;12.00;;;9.10;;
4638;SDS011;2332;38.646;-9.154;2023-03-02T11:44:55;11.80;;;9.23;;
4638;SDS011;2332;38.646;-9.154;2023-03-02T11:47:21;13.90;;;9.50;;
4638;SDS011;2332;38.646;-9.154;2023-03-02T11:49:56;14.07;;;9.57;;
4638;SDS011;2332;38.646;-9.154;2023-03-02T11:52:26;13.83;;;8.60;;
4638;SDS011;2332;38.646;-9.154;2023-03-02T11:54:56;16.73;;;8.57;;
4638;SDS011;2332;38.646;-9.154;2023-03-02T11:57:33;11.40;;;8.57;;
4638;SDS011;2332;38.646;-9.154;2023-03-02T11:59:59;10.00;;;8.13;;
4638;SDS011;2332;38.646;-9.154;2023-03-02T12:02:25;8.00;;;7.20;;
4638;SDS011;2332;38.646;-9.154;2023-03-02T12:05:02;11.00;;;7.73;;
4638;SDS011;2332;38.646;-9.154;2023-03-02T12:07:28;9.57;;;7.50;;
4638;SDS011;2332;38.646;-9.154;2023-03-02T12:09:58;11.20;;;7.17;;
4638;SDS011;2332;38.646;-9.154;2023-03-02T12:14:52;13.30;;;6.10;;
4638;SDS011;2332;38.646;-9.154;2023-03-02T12:19:46;12.30;;;6.50;;
4638;SDS011;2332;38.646;-9.154;2023-03-02T12:22:12;12.90;;;7.57;;
4638;SDS011;2332;38.646;-9.154;2023-03-02T12:24:42;9.93;;;6.30;;
4638;SDS011;2332;38.646;-9.154;2023-03-02T12:29:41;5.87;;;4.67;;
4638;SDS011;2332;38.646;-9.154;2023-03-02T12:32:40;6.40;;;5.33;;
4638;SDS011;2332;38.646;-9.154;2023-03-02T12:40:16;9.03;;;6.40;;
4638;SDS011;2332;38.646;-9.154;2023-03-02T12:42:49;12.00;;;6.40;;
4638;SDS011;2332;38.646;-9.154;2023-03-02T12:48:02;9.80;;;6.77;;
4638;SDS011;2332;38.646;-9.154;2023-03-02T12:50:30;11.73;;;5.57;;
4638;SDS011;2332;38.646;-9.154;2023-03-02T12:53:05;21.90;;;5.97;;
4638;SDS011;2332;38.646;-9.154;2023-03-02T12:55:34;12.03;;;6.40;;
4638;SDS011;2332;38.646;-9.154;2023-03-02T12:58:02;10.53;;;6.50;;
4638;SDS011;2332;38.646;-9.154;2023-03-02T13:00:31;11.30;;;6.17;;
4638;SDS011;2332;38.646;-9.154;2023-03-02T13:02:57;6.73;;;5.20;;
4638;SDS011;2332;38.646;-9.154;2023-03-02T13:05:24;10.33;;;6.27;;
4638;SDS011;2332;38.646;-9.154;2023-03-02T13:08:03;11.33;;;6.90;;
4638;SDS011;2332;38.646;-9.154;2023-03-02T13:10:30;14.40;;;7.73;;
4638;SDS011;2332;38.646;-9.154;2023-03-02T13:12:58;10.40;;;6.67;;
4638;SDS011;2332;38.646;-9.154;2023-03-02T13:15:23;9.80;;;5.80;;
4638;SDS011;2332;38.646;-9.154;2023-03-02T13:18:09;21.23;;;6.03;;
4638;SDS011;2332;38.646;-9.154;2023-03-02T13:20:35;5.40;;;4.97;;
4638;SDS011;2332;38.646;-9.154;2023-03-02T13:23:00;7.73;;;5.87;;
4638;SDS011;2332;38.646;-9.154;2023-03-02T13:25:29;7.90;;;6.17;;
4638;SDS011;2332;38.646;-9.154;2023-03-02T13:27:58;8.60;;;5.80;;
4638;SDS011;2332;38.646;-9.154;2023-03-02T13:30:34;9.00;;;6.27;;
4638;SDS011;2332;38.646;-9.154;2023-03-02T13:33:02;9.93;;;5.93;;
4638;SDS011;2332;38.646;-9.154;2023-03-02T13:35:30;11.33;;;6.77;;
4638;SDS011;2332;38.646;-9.154;2023-03-02T13:38:02;8.87;;;5.73;;
4638;SDS011;2332;38.646;-9.154;2023-03-02T13:40:30;8.50;;;5.83;;
4638;SDS011;2332;38.646;-9.154;2023-03-02T13:42:56;6.27;;;5.50;;
4638;SDS011;2332;38.646;-9.154;2023-03-02T13:45:23;9.53;;;5.90;;
4638;SDS011;2332;38.646;-9.154;2023-03-02T13:47:49;18.77;;;6.10;;
4638;SDS011;2332;38.646;-9.154;2023-03-02T13:50:18;8.50;;;5.37;;
4638;SDS011;2332;38.646;-9.154;2023-03-02T13:52:43;10.57;;;5.83;;
4638;SDS011;2332;38.646;-9.154;2023-03-02T13:55:15;8.77;;;6.63;;
4638;SDS011;2332;38.646;-9.154;2023-03-02T13:57:43;9.50;;;6.50;;
4638;SDS011;2332;38.646;-9.154;2023-03-02T14:00:52;8.30;;;6.00;;
4638;SDS011;2332;38.646;-9.154;2023-03-02T14:02:58;8.50;;;5.50;;
4638;SDS011;2332;38.646;-9.154;2023-03-02T14:05:24;15.23;;;7.20;;
4638;SDS011;2332;38.646;-9.154;2023-03-02T14:07:56;9.27;;;6.80;;
4638;SDS011;2332;38.646;-9.154;2023-03-02T14:10:22;11.80;;;6.40;;
4638;SDS011;2332;38.646;-9.154;2023-03-02T14:13:06;8.43;;;6.07;;
4638;SDS011;2332;38.646;-9.154;2023-03-02T14:15:38;20.93;;;6.67;;
4638;SDS011;2332;38.646;-9.154;2023-03-02T14:18:25;9.10;;;6.17;;
4638;SDS011;2332;38.646;-9.154;2023-03-02T14:20:49;12.87;;;6.90;;
4638;SDS011;2332;38.646;-9.154;2023-03-02T14:23:15;8.57;;;6.47;;
4638;SDS011;2332;38.646;-9.154;2023-03-02T14:25:40;10.33;;;6.50;;
4638;SDS011;2332;38.646;-9.154;2023-03-02T14:28:09;11.07;;;6.20;;
4638;SDS011;2332;38.646;-9.154;2023-03-02T14:30:36;10.53;;;5.97;;
4638;SDS011;2332;38.646;-9.154;2023-03-02T14:33:01;11.07;;;6.50;;
4638;SDS011;2332;38.646;-9.154;2023-03-02T14:35:27;7.80;;;5.50;;
4638;SDS011;2332;38.646;-9.154;2023-03-02T14:37:52;10.80;;;6.20;;
4638;SDS011;2332;38.646;-9.154;2023-03-02T14:40:26;8.90;;;5.60;;
4638;SDS011;2332;38.646;-9.154;2023-03-02T14:42:52;8.10;;;5.83;;
4638;SDS011;2332;38.646;-9.154;2023-03-02T14:45:18;8.97;;;5.90;;
4638;SDS011;2332;38.646;-9.154;2023-03-02T14:47:43;10.27;;;6.50;;
4638;SDS011;2332;38.646;-9.154;2023-03-02T14:50:09;15.13;;;5.50;;
4638;SDS011;2332;38.646;-9.154;2023-03-02T14:52:39;7.07;;;5.40;;
4638;SDS011;2332;38.646;-9.154;2023-03-02T14:55:27;7.93;;;5.73;;
4638;SDS011;2332;38.646;-9.154;2023-03-02T14:57:56;8.50;;;5.70;;
4638;SDS011;2332;38.646;-9.154;2023-03-02T15:00:22;8.90;;;5.63;;
4638;SDS011;2332;38.646;-9.154;2023-03-02T15:02:48;9.43;;;5.77;;
4638;SDS011;2332;38.646;-9.154;2023-03-02T15:05:13;7.00;;;5.47;;
4638;SDS011;2332;38.646;-9.154;2023-03-02T15:07:39;11.30;;;5.47;;
4638;SDS011;2332;38.646;-9.154;2023-03-02T15:10:05;8.23;;;6.50;;
4638;SDS011;2332;38.646;-9.154;2023-03-02T15:12:31;8.27;;;5.93;;
4638;SDS011;2332;38.646;-9.154;2023-03-02T15:14:57;10.97;;;5.93;;
4638;SDS011;2332;38.646;-9.154;2023-03-02T15:17:23;11.43;;;6.40;;
4638;SDS011;2332;38.646;-9.154;2023-03-02T15:19:48;8.17;;;6.30;;
4638;SDS011;2332;38.646;-9.154;2023-03-02T15:22:14;9.40;;;6.27;;
4638;SDS011;2332;38.646;-9.154;2023-03-02T15:24:39;10.53;;;5.60;;
4638;SDS011;2332;38.646;-9.154;2023-03-02T15:27:05;12.50;;;6.00;;
4638;SDS011;2332;38.646;-9.154;2023-03-02T15:29:30;11.90;;;6.63;;
4638;SDS011;2332;38.646;-9.154;2023-03-02T15:31:56;12.70;;;6.60;;